createdAt,value
2019-03-18T00:28:51.314Z,1003.03
2019-03-18T00:28:51.882Z,1003.08
2019-03-18T00:28:52.482Z,1003.05
2019-03-18T00:28:53.081Z,1003.09
2019-03-18T00:28:53.682Z,1003.08
2019-03-18T00:28:54.284Z,1003.07
2019-03-18T00:28:54.961Z,1003.07
2019-03-18T00:28:55.483Z,1003.06
2019-03-18T00:29:48.963Z,1003.01
2019-03-18T00:29:49.536Z,1003.06
2019-03-18T00:29:50.135Z,1003.06
2019-03-18T00:29:50.736Z,1003.08
2019-03-18T00:29:51.334Z,1003.08
2019-03-18T00:29:51.990Z,1003.04
2019-03-18T00:29:52.536Z,1003.11
2019-03-18T00:29:53.133Z,1003.11
2019-03-18T00:30:46.615Z,1002.97
2019-03-18T00:30:47.192Z,1003.02
2019-03-18T00:30:47.791Z,1003.03
2019-03-18T00:30:48.387Z,1003.03
2019-03-18T00:30:48.987Z,1003.05
2019-03-18T00:30:49.590Z,1003.06
2019-03-18T00:30:50.186Z,1003.04
2019-03-18T00:30:50.790Z,1003.09
2019-03-18T00:31:44.266Z,1002.97
2019-03-18T00:31:44.840Z,1002.99
2019-03-18T00:31:45.441Z,1003.04
2019-03-18T00:31:46.039Z,1003.03
2019-03-18T00:31:46.640Z,1003.02
2019-03-18T00:31:47.239Z,1003.04
2019-03-18T00:31:47.845Z,1003.05
2019-03-18T00:31:48.438Z,1003.03
2019-03-18T00:32:42.941Z,1003.03
2019-03-18T00:32:43.516Z,1003.08
2019-03-18T00:32:44.117Z,1003.08
2019-03-18T00:32:44.715Z,1003.09
2019-03-18T00:32:45.315Z,1003.10
2019-03-18T00:32:45.918Z,1003.09
2019-03-18T00:32:46.517Z,1003.08
2019-03-18T00:32:47.116Z,1003.07
2019-03-18T00:33:40.594Z,1002.96
2019-03-18T00:33:41.172Z,1003.05
2019-03-18T00:33:41.774Z,1003.10
2019-03-18T00:33:42.368Z,1003.07
2019-03-18T00:33:42.967Z,1003.08
2019-03-18T00:33:43.567Z,1003.06
2019-03-18T00:33:44.168Z,1003.08
2019-03-18T00:33:44.768Z,1003.05
2019-03-18T00:34:39.269Z,1003.09
2019-03-18T00:34:39.846Z,1003.11
2019-03-18T00:34:40.444Z,1003.09
2019-03-18T00:34:41.043Z,1003.11
2019-03-18T00:34:41.644Z,1003.12
2019-03-18T00:34:42.244Z,1003.10
2019-03-18T00:34:42.844Z,1003.11
2019-03-18T00:34:43.442Z,1003.13
2019-03-18T00:35:37.948Z,1003.11
2019-03-18T00:35:38.519Z,1003.15
2019-03-18T00:35:39.120Z,1003.14
2019-03-18T00:35:39.720Z,1003.17
2019-03-18T00:35:40.319Z,1003.16
2019-03-18T00:35:40.922Z,1003.15
2019-03-18T00:35:41.520Z,1003.15
2019-03-18T00:35:42.121Z,1003.15
2019-03-18T00:36:36.621Z,1003.08
2019-03-18T00:36:37.203Z,1003.12
2019-03-18T00:36:37.796Z,1003.11
2019-03-18T00:36:38.395Z,1003.11
2019-03-18T00:36:38.997Z,1003.09
2019-03-18T00:36:39.594Z,1003.13
2019-03-18T00:36:40.195Z,1003.10
2019-03-18T00:36:40.795Z,1003.15
2019-03-18T00:37:34.274Z,1003.15
2019-03-18T00:37:34.849Z,1003.18
2019-03-18T00:37:35.448Z,1003.18
2019-03-18T00:37:36.048Z,1003.22
2019-03-18T00:37:36.649Z,1003.19
2019-03-18T00:37:37.247Z,1003.17
2019-03-18T00:37:37.848Z,1003.15
2019-03-18T00:37:38.449Z,1003.16
2019-03-18T00:38:31.927Z,1003.05
2019-03-18T00:38:32.499Z,1003.14
2019-03-18T00:38:33.100Z,1003.12
2019-03-18T00:38:33.700Z,1003.12
2019-03-18T00:38:34.320Z,1003.12
2019-03-18T00:38:34.901Z,1003.11
2019-03-18T00:38:35.498Z,1003.10
2019-03-18T00:38:36.099Z,1003.10
2019-03-18T00:39:29.578Z,1003.12
2019-03-18T00:39:30.154Z,1003.13
2019-03-18T00:39:30.753Z,1003.19
2019-03-18T00:39:31.354Z,1003.16
2019-03-18T00:39:31.953Z,1003.16
2019-03-18T00:39:32.552Z,1003.16
2019-03-18T00:39:33.158Z,1003.19
2019-03-18T00:39:33.752Z,1003.20
2019-03-18T00:40:28.315Z,1003.09
2019-03-18T00:40:28.829Z,1003.17
2019-03-18T00:40:29.428Z,1003.20
2019-03-18T00:40:30.029Z,1003.19
2019-03-18T00:40:30.628Z,1003.16
2019-03-18T00:40:31.226Z,1003.19
2019-03-18T00:40:31.828Z,1003.18
2019-03-18T00:40:32.426Z,1003.18
2019-03-18T00:41:25.907Z,1003.06
2019-03-18T00:41:26.481Z,1003.09
2019-03-18T00:41:27.081Z,1003.13
2019-03-18T00:41:27.681Z,1003.10
2019-03-18T00:41:28.280Z,1003.14
2019-03-18T00:41:28.912Z,1003.13
2019-03-18T00:41:29.480Z,1003.16
2019-03-18T00:41:30.080Z,1003.16
2019-03-18T00:42:24.584Z,1003.11
2019-03-18T00:42:25.156Z,1003.11
2019-03-18T00:42:25.755Z,1003.15
2019-03-18T00:42:26.358Z,1003.14
2019-03-18T00:42:26.956Z,1003.15
2019-03-18T00:42:27.554Z,1003.15
2019-03-18T00:42:28.154Z,1003.19
2019-03-18T00:42:28.756Z,1003.17
2019-03-18T00:43:22.233Z,1003.12
2019-03-18T00:43:22.808Z,1003.16
2019-03-18T00:43:23.407Z,1003.17
2019-03-18T00:43:24.011Z,1003.20
2019-03-18T00:43:24.607Z,1003.13
2019-03-18T00:43:25.207Z,1003.12
2019-03-18T00:43:25.808Z,1003.17
2019-03-18T00:43:26.469Z,1003.16
2019-03-18T00:44:20.911Z,1003.10
2019-03-18T00:44:21.487Z,1003.10
2019-03-18T00:44:22.147Z,1003.12
2019-03-18T00:44:22.684Z,1003.11
2019-03-18T00:44:23.283Z,1003.15
2019-03-18T00:44:23.884Z,1003.15
2019-03-18T00:44:24.484Z,1003.15
2019-03-18T00:44:25.083Z,1003.13
2019-03-18T00:45:18.566Z,1002.99
2019-03-18T00:45:19.134Z,1003.05
2019-03-18T00:45:19.736Z,1003.07
2019-03-18T00:45:20.347Z,1003.06
2019-03-18T00:45:20.988Z,1003.07
2019-03-18T00:45:21.537Z,1003.10
2019-03-18T00:45:22.163Z,1003.07
2019-03-18T00:45:22.732Z,1003.05
2019-03-18T00:46:16.213Z,1002.99
2019-03-18T00:46:16.787Z,1003.01
2019-03-18T00:46:17.387Z,1003.07
2019-03-18T00:46:17.992Z,1003.05
2019-03-18T00:46:18.589Z,1003.06
2019-03-18T00:46:19.188Z,1003.04
2019-03-18T00:46:19.787Z,1003.11
2019-03-18T00:46:20.386Z,1003.06
2019-03-18T00:47:13.865Z,1003.00
2019-03-18T00:47:14.438Z,1003.02
2019-03-18T00:47:15.037Z,1003.03
2019-03-18T00:47:15.640Z,1003.02
2019-03-18T00:47:16.237Z,1002.99
2019-03-18T00:47:16.837Z,1003.02
2019-03-18T00:47:17.462Z,1003.07
2019-03-18T00:47:18.038Z,1003.07
2019-03-18T00:48:11.518Z,1003.06
2019-03-18T00:48:12.091Z,1003.09
2019-03-18T00:48:12.691Z,1003.10
2019-03-18T00:48:13.292Z,1003.13
2019-03-18T00:48:13.892Z,1003.16
2019-03-18T00:48:14.490Z,1003.13
2019-03-18T00:48:15.089Z,1003.12
2019-03-18T00:48:15.690Z,1003.10
2019-03-18T00:49:10.192Z,1003.12
2019-03-18T00:49:10.766Z,1003.18
2019-03-18T00:49:11.365Z,1003.15
2019-03-18T00:49:11.964Z,1003.17
2019-03-18T00:49:12.631Z,1003.19
2019-03-18T00:49:13.164Z,1003.19
2019-03-18T00:49:13.764Z,1003.22
2019-03-18T00:49:14.366Z,1003.28
2019-03-18T00:50:07.843Z,1003.17
2019-03-18T00:50:08.419Z,1003.21
2019-03-18T00:50:09.019Z,1003.23
2019-03-18T00:50:09.617Z,1003.23
2019-03-18T00:50:10.227Z,1003.23
2019-03-18T00:50:10.819Z,1003.25
2019-03-18T00:50:11.416Z,1003.27
2019-03-18T00:50:12.017Z,1003.24
2019-03-18T00:51:06.521Z,1003.22
2019-03-18T00:51:07.095Z,1003.26
2019-03-18T00:51:07.697Z,1003.27
2019-03-18T00:51:08.294Z,1003.29
2019-03-18T00:51:08.894Z,1003.26
2019-03-18T00:51:09.492Z,1003.26
2019-03-18T00:51:10.092Z,1003.25
2019-03-18T00:51:10.694Z,1003.29
2019-03-18T00:52:05.195Z,1003.14
2019-03-18T00:52:05.767Z,1003.16
2019-03-18T00:52:06.368Z,1003.20
2019-03-18T00:52:06.969Z,1003.24
2019-03-18T00:52:07.569Z,1003.28
2019-03-18T00:52:08.167Z,1003.22
2019-03-18T00:52:08.768Z,1003.24
2019-03-18T00:52:09.367Z,1003.25
2019-03-18T00:53:02.849Z,1003.19
2019-03-18T00:53:03.421Z,1003.23
2019-03-18T00:53:04.030Z,1003.26
2019-03-18T00:53:04.622Z,1003.24
2019-03-18T00:53:05.220Z,1003.26
2019-03-18T00:53:05.826Z,1003.27
2019-03-18T00:53:06.424Z,1003.23
2019-03-18T00:53:07.020Z,1003.25
2019-03-18T00:54:00.498Z,1003.18
2019-03-18T00:54:01.073Z,1003.23
2019-03-18T00:54:01.675Z,1003.22
2019-03-18T00:54:02.273Z,1003.23
2019-03-18T00:54:02.875Z,1003.26
2019-03-18T00:54:03.472Z,1003.24
2019-03-18T00:54:04.073Z,1003.22
2019-03-18T00:54:04.672Z,1003.24
2019-03-18T00:54:59.176Z,1003.21
2019-03-18T00:54:59.747Z,1003.21
2019-03-18T00:55:00.369Z,1003.26
2019-03-18T00:55:00.947Z,1003.26
2019-03-18T00:55:01.548Z,1003.27
2019-03-18T00:55:02.153Z,1003.25
2019-03-18T00:55:02.750Z,1003.25
2019-03-18T00:55:03.350Z,1003.27
2019-03-18T00:55:56.826Z,1003.17
2019-03-18T00:55:57.400Z,1003.29
2019-03-18T00:55:58.000Z,1003.22
2019-03-18T00:55:58.601Z,1003.26
2019-03-18T00:55:59.201Z,1003.22
2019-03-18T00:55:59.800Z,1003.29
2019-03-18T00:56:00.401Z,1003.27
2019-03-18T00:56:01.001Z,1003.25
2019-03-18T00:56:55.505Z,1003.24
2019-03-18T00:56:56.077Z,1003.29
2019-03-18T00:56:56.675Z,1003.33
2019-03-18T00:56:57.274Z,1003.33
2019-03-18T00:56:57.876Z,1003.34
2019-03-18T00:56:58.474Z,1003.33
2019-03-18T00:56:59.078Z,1003.34
2019-03-18T00:56:59.675Z,1003.35
2019-03-18T00:57:54.179Z,1003.26
2019-03-18T00:57:54.752Z,1003.28
2019-03-18T00:57:55.351Z,1003.32
2019-03-18T00:57:55.953Z,1003.30
2019-03-18T00:57:56.552Z,1003.26
2019-03-18T00:57:57.151Z,1003.29
2019-03-18T00:57:57.752Z,1003.29
2019-03-18T00:57:58.349Z,1003.28
2019-03-18T00:58:51.829Z,1003.27
2019-03-18T00:58:52.405Z,1003.33
2019-03-18T00:58:53.010Z,1003.36
2019-03-18T00:58:53.604Z,1003.35
2019-03-18T00:58:54.204Z,1003.41
2019-03-18T00:58:54.804Z,1003.33
2019-03-18T00:58:55.403Z,1003.32
2019-03-18T00:58:56.004Z,1003.31
2019-03-18T00:59:49.480Z,1003.23
2019-03-18T00:59:50.056Z,1003.28
2019-03-18T00:59:50.655Z,1003.26
2019-03-18T00:59:51.256Z,1003.21
2019-03-18T00:59:51.856Z,1003.25
2019-03-18T00:59:52.455Z,1003.24
2019-03-18T00:59:53.141Z,1003.23
2019-03-18T00:59:53.654Z,1003.27
2019-03-18T01:00:47.133Z,1003.18
2019-03-18T01:00:47.706Z,1003.27
2019-03-18T01:00:48.307Z,1003.27
2019-03-18T01:00:48.907Z,1003.27
2019-03-18T01:00:49.506Z,1003.26
2019-03-18T01:00:50.107Z,1003.28
2019-03-18T01:00:50.707Z,1003.30
2019-03-18T01:00:51.306Z,1003.31
2019-03-18T01:01:45.810Z,1003.27
2019-03-18T01:01:46.382Z,1003.27
2019-03-18T01:01:46.983Z,1003.28
2019-03-18T01:01:47.583Z,1003.31
2019-03-18T01:01:48.181Z,1003.32
2019-03-18T01:01:48.781Z,1003.33
2019-03-18T01:01:49.380Z,1003.34
2019-03-18T01:01:49.983Z,1003.32
2019-03-18T01:02:43.460Z,1003.33
2019-03-18T01:02:44.037Z,1003.40
2019-03-18T01:02:44.635Z,1003.40
2019-03-18T01:02:45.233Z,1003.40
2019-03-18T01:02:45.838Z,1003.43
2019-03-18T01:02:49.257Z,1003.44
2019-03-18T01:02:49.515Z,1003.41
2019-03-18T01:02:49.566Z,1003.39
2019-03-18T01:03:42.136Z,1003.29
2019-03-18T01:03:42.709Z,1003.35
2019-03-18T01:03:43.309Z,1003.34
2019-03-18T01:03:43.949Z,1003.33
2019-03-18T01:03:44.509Z,1003.33
2019-03-18T01:03:45.108Z,1003.37
2019-03-18T01:03:45.709Z,1003.34
2019-03-18T01:03:46.308Z,1003.37
2019-03-18T01:04:40.811Z,1003.28
2019-03-18T01:04:41.386Z,1003.27
2019-03-18T01:04:41.985Z,1003.33
2019-03-18T01:04:42.585Z,1003.33
2019-03-18T01:04:43.185Z,1003.35
2019-03-18T01:04:43.785Z,1003.35
2019-03-18T01:04:44.384Z,1003.34
2019-03-18T01:04:44.985Z,1003.35
2019-03-18T01:05:39.489Z,1003.30
2019-03-18T01:05:40.059Z,1003.36
2019-03-18T01:05:40.661Z,1003.42
2019-03-18T01:05:41.261Z,1003.41
2019-03-18T01:05:41.859Z,1003.37
2019-03-18T01:05:42.461Z,1003.40
2019-03-18T01:05:43.059Z,1003.42
2019-03-18T01:05:43.660Z,1003.38
2019-03-18T01:06:37.139Z,1003.32
2019-03-18T01:06:37.714Z,1003.38
2019-03-18T01:06:38.314Z,1003.39
2019-03-18T01:06:38.915Z,1003.36
2019-03-18T01:06:39.513Z,1003.38
2019-03-18T01:06:40.114Z,1003.39
2019-03-18T01:06:40.713Z,1003.40
2019-03-18T01:06:41.321Z,1003.42
2019-03-18T01:07:38.784Z,1003.37
2019-03-18T01:07:39.363Z,1003.41
2019-03-18T01:07:39.957Z,1003.40
2019-03-18T01:08:33.468Z,1003.29
2019-03-18T01:08:34.042Z,1003.37
2019-03-18T01:08:34.641Z,1003.36
2019-03-18T01:08:35.240Z,1003.36
2019-03-18T01:08:35.840Z,1003.34
2019-03-18T01:08:36.443Z,1003.38
2019-03-18T01:08:37.040Z,1003.38
2019-03-18T01:08:37.643Z,1003.37
2019-03-18T01:09:39.616Z,1003.37
2019-03-18T01:09:40.190Z,1003.39
2019-03-18T01:09:40.791Z,1003.37
2019-03-18T01:09:41.390Z,1003.39
2019-03-18T01:09:41.993Z,1003.40
2019-03-18T01:09:42.591Z,1003.43
2019-03-18T01:09:43.190Z,1003.45
2019-03-18T01:09:43.791Z,1003.49
2019-03-18T01:09:44.390Z,1003.46
2019-03-18T01:09:44.988Z,1003.41
2019-03-18T01:09:45.588Z,1003.44
2019-03-18T01:09:46.187Z,1003.47
2019-03-18T01:10:40.238Z,1003.41
2019-03-18T01:10:40.813Z,1003.47
2019-03-18T01:10:41.411Z,1003.46
2019-03-18T01:10:42.011Z,1003.45
2019-03-18T01:10:42.612Z,1003.46
2019-03-18T01:10:43.211Z,1003.47
2019-03-18T01:10:43.810Z,1003.45
2019-03-18T01:11:37.797Z,1003.38
2019-03-18T01:11:38.362Z,1003.40
2019-03-18T01:11:38.961Z,1003.44
2019-03-18T01:11:39.562Z,1003.40
2019-03-18T01:11:40.161Z,1003.40
2019-03-18T01:11:40.761Z,1003.38
2019-03-18T01:11:41.360Z,1003.40
2019-03-18T01:12:34.824Z,1003.38
2019-03-18T01:12:35.399Z,1003.43
2019-03-18T01:12:35.999Z,1003.45
2019-03-18T01:12:36.599Z,1003.48
2019-03-18T01:12:37.201Z,1003.46
2019-03-18T01:12:37.799Z,1003.45
2019-03-18T01:12:38.412Z,1003.44
2019-03-18T01:12:39.012Z,1003.49
2019-03-18T01:13:32.476Z,1003.39
2019-03-18T01:13:33.052Z,1003.42
2019-03-18T01:13:33.652Z,1003.42
2019-03-18T01:13:34.251Z,1003.45
2019-03-18T01:13:34.851Z,1003.48
2019-03-18T01:13:35.450Z,1003.53
2019-03-18T01:13:36.052Z,1003.50
2019-03-18T01:13:36.651Z,1003.52
2019-03-18T01:14:30.128Z,1003.46
2019-03-18T01:14:30.704Z,1003.50
2019-03-18T01:14:31.303Z,1003.52
2019-03-18T01:14:31.967Z,1003.48
2019-03-18T01:14:32.503Z,1003.48
2019-03-18T01:14:33.104Z,1003.47
2019-03-18T01:14:33.703Z,1003.48
2019-03-18T01:14:34.303Z,1003.47
2019-03-18T01:15:28.705Z,1003.36
2019-03-18T01:15:28.864Z,1003.42
2019-03-18T01:15:28.955Z,1003.46
2019-03-18T01:15:29.553Z,1003.44
2019-03-18T01:15:30.156Z,1003.50
2019-03-18T01:15:30.754Z,1003.46
2019-03-18T01:15:31.352Z,1003.46
2019-03-18T01:15:31.956Z,1003.44
2019-03-18T01:16:26.456Z,1003.37
2019-03-18T01:16:27.034Z,1003.40
2019-03-18T01:16:27.630Z,1003.41
2019-03-18T01:16:28.236Z,1003.45
2019-03-18T01:16:28.832Z,1003.43
2019-03-18T01:16:29.433Z,1003.45
2019-03-18T01:16:30.031Z,1003.43
2019-03-18T01:16:30.629Z,1003.42
2019-03-18T01:17:25.132Z,1003.49
2019-03-18T01:17:25.707Z,1003.50
2019-03-18T01:17:26.305Z,1003.45
2019-03-18T01:17:26.923Z,1003.51
2019-03-18T01:17:27.505Z,1003.47
2019-03-18T01:17:28.106Z,1003.50
2019-03-18T01:17:28.724Z,1003.47
2019-03-18T01:17:29.305Z,1003.53
2019-03-18T01:18:23.808Z,1003.46
2019-03-18T01:18:24.381Z,1003.52
2019-03-18T01:18:24.981Z,1003.50
2019-03-18T01:18:25.581Z,1003.52
2019-03-18T01:18:26.182Z,1003.48
2019-03-18T01:18:26.782Z,1003.52
2019-03-18T01:18:27.383Z,1003.54
2019-03-18T01:18:27.985Z,1003.52
2019-03-18T01:19:22.483Z,1003.42
2019-03-18T01:19:23.059Z,1003.44
2019-03-18T01:19:23.656Z,1003.48
2019-03-18T01:19:24.257Z,1003.49
2019-03-18T01:19:24.859Z,1003.49
2019-03-18T01:19:25.460Z,1003.50
2019-03-18T01:19:26.056Z,1003.53
2019-03-18T01:19:26.656Z,1003.53
2019-03-18T01:20:20.135Z,1003.41
2019-03-18T01:20:20.709Z,1003.43
2019-03-18T01:20:21.309Z,1003.43
2019-03-18T01:20:21.911Z,1003.45
2019-03-18T01:20:22.509Z,1003.44
2019-03-18T01:20:23.112Z,1003.47
2019-03-18T01:20:23.709Z,1003.47
2019-03-18T01:20:24.309Z,1003.51
2019-03-18T01:21:18.811Z,1003.35
2019-03-18T01:21:19.384Z,1003.38
2019-03-18T01:21:19.987Z,1003.39
2019-03-18T01:21:20.586Z,1003.37
2019-03-18T01:21:21.183Z,1003.38
2019-03-18T01:21:21.793Z,1003.40
2019-03-18T01:21:22.387Z,1003.42
2019-03-18T01:21:22.984Z,1003.45
2019-03-18T01:22:16.465Z,1003.34
2019-03-18T01:22:17.039Z,1003.38
2019-03-18T01:22:17.638Z,1003.43
2019-03-18T01:22:18.238Z,1003.44
2019-03-18T01:22:18.839Z,1003.41
2019-03-18T01:22:19.437Z,1003.45
2019-03-18T01:22:20.037Z,1003.45
2019-03-18T01:22:20.636Z,1003.46
2019-03-18T01:23:15.139Z,1003.52
2019-03-18T01:23:15.712Z,1003.54
2019-03-18T01:23:16.315Z,1003.54
2019-03-18T01:23:16.922Z,1003.55
2019-03-18T01:23:17.512Z,1003.54
2019-03-18T01:23:18.114Z,1003.53
2019-03-18T01:23:18.711Z,1003.53
2019-03-18T01:23:19.312Z,1003.55
2019-03-18T01:24:13.815Z,1003.44
2019-03-18T01:24:14.388Z,1003.51
2019-03-18T01:24:14.987Z,1003.51
2019-03-18T01:24:15.588Z,1003.51
2019-03-18T01:24:16.187Z,1003.53
2019-03-18T01:24:16.786Z,1003.48
2019-03-18T01:24:17.386Z,1003.51
2019-03-18T01:24:17.987Z,1003.49
2019-03-18T01:25:11.467Z,1003.41
2019-03-18T01:25:12.041Z,1003.45
2019-03-18T01:25:12.638Z,1003.45
2019-03-18T01:25:13.240Z,1003.50
2019-03-18T01:25:13.896Z,1003.51
2019-03-18T01:25:14.446Z,1003.50
2019-03-18T01:25:15.038Z,1003.49
2019-03-18T01:25:15.641Z,1003.48
2019-03-18T01:26:10.142Z,1003.41
2019-03-18T01:26:10.714Z,1003.43
2019-03-18T01:26:11.317Z,1003.42
2019-03-18T01:26:11.917Z,1003.46
2019-03-18T01:26:12.516Z,1003.48
2019-03-18T01:26:13.115Z,1003.48
2019-03-18T01:26:13.715Z,1003.46
2019-03-18T01:26:14.315Z,1003.43
2019-03-18T01:27:07.797Z,1003.41
2019-03-18T01:27:08.366Z,1003.46
2019-03-18T01:27:08.966Z,1003.45
2019-03-18T01:27:09.566Z,1003.48
2019-03-18T01:27:10.165Z,1003.46
2019-03-18T01:27:10.766Z,1003.49
2019-03-18T01:27:11.365Z,1003.51
2019-03-18T01:27:11.969Z,1003.51
2019-03-18T01:28:05.445Z,1003.53
2019-03-18T01:28:06.020Z,1003.51
2019-03-18T01:28:06.627Z,1003.55
2019-03-18T01:28:07.219Z,1003.56
2019-03-18T01:28:07.819Z,1003.57
2019-03-18T01:28:08.420Z,1003.59
2019-03-18T01:28:09.022Z,1003.56
2019-03-18T01:28:09.620Z,1003.56
2019-03-18T01:29:03.098Z,1003.50
2019-03-18T01:29:03.674Z,1003.57
2019-03-18T01:29:04.271Z,1003.57
2019-03-18T01:29:04.870Z,1003.57
2019-03-18T01:29:05.470Z,1003.61
2019-03-18T01:29:06.070Z,1003.61
2019-03-18T01:29:06.670Z,1003.61
2019-03-18T01:29:07.270Z,1003.60
2019-03-18T01:30:01.783Z,1003.35
2019-03-18T01:30:02.346Z,1003.43
2019-03-18T01:30:02.946Z,1003.44
2019-03-18T01:30:03.549Z,1003.43
2019-03-18T01:30:04.147Z,1003.49
2019-03-18T01:30:04.822Z,1003.47
2019-03-18T01:30:05.345Z,1003.49
2019-03-18T01:30:05.948Z,1003.48
2019-03-18T01:30:59.425Z,1003.51
2019-03-18T01:31:00.005Z,1003.52
2019-03-18T01:31:00.598Z,1003.49
2019-03-18T01:31:01.199Z,1003.49
2019-03-18T01:31:01.799Z,1003.53
2019-03-18T01:31:02.398Z,1003.49
2019-03-18T01:31:02.998Z,1003.55
2019-03-18T01:31:03.606Z,1003.51
2019-03-18T01:31:58.100Z,1003.43
2019-03-18T01:31:58.674Z,1003.43
2019-03-18T01:31:59.277Z,1003.42
2019-03-18T01:31:59.874Z,1003.43
2019-03-18T01:32:00.477Z,1003.41
2019-03-18T01:32:01.073Z,1003.43
2019-03-18T01:32:01.672Z,1003.40
2019-03-18T01:32:02.272Z,1003.43
2019-03-18T01:32:55.753Z,1003.44
2019-03-18T01:32:56.325Z,1003.49
2019-03-18T01:32:56.925Z,1003.55
2019-03-18T01:32:57.525Z,1003.51
2019-03-18T01:32:58.126Z,1003.49
2019-03-18T01:32:58.725Z,1003.52
2019-03-18T01:32:59.323Z,1003.50
2019-03-18T01:32:59.928Z,1003.52
2019-03-18T01:33:53.404Z,1003.48
2019-03-18T01:33:53.978Z,1003.49
2019-03-18T01:33:54.578Z,1003.52
2019-03-18T01:33:55.178Z,1003.49
2019-03-18T01:33:55.779Z,1003.51
2019-03-18T01:33:56.377Z,1003.50
2019-03-18T01:33:56.978Z,1003.48
2019-03-18T01:33:57.580Z,1003.50
2019-03-18T01:34:52.083Z,1003.47
2019-03-18T01:34:52.659Z,1003.51
2019-03-18T01:34:53.253Z,1003.53
2019-03-18T01:34:53.853Z,1003.53
2019-03-18T01:34:54.455Z,1003.57
2019-03-18T01:34:55.052Z,1003.55
2019-03-18T01:34:55.652Z,1003.53
2019-03-18T01:34:56.251Z,1003.60
2019-03-18T01:35:49.731Z,1003.39
2019-03-18T01:35:50.305Z,1003.45
2019-03-18T01:35:50.905Z,1003.48
2019-03-18T01:35:51.504Z,1003.47
2019-03-18T01:35:52.107Z,1003.46
2019-03-18T01:35:52.704Z,1003.49
2019-03-18T01:35:53.304Z,1003.51
2019-03-18T01:35:53.905Z,1003.44
2019-03-18T01:36:47.402Z,1003.46
2019-03-18T01:36:47.957Z,1003.54
2019-03-18T01:36:48.560Z,1003.48
2019-03-18T01:36:49.156Z,1003.52
2019-03-18T01:36:49.757Z,1003.50
2019-03-18T01:36:50.361Z,1003.53
2019-03-18T01:36:50.956Z,1003.50
2019-03-18T01:36:51.555Z,1003.53
2019-03-18T01:37:45.036Z,1003.46
2019-03-18T01:37:45.608Z,1003.55
2019-03-18T01:37:46.210Z,1003.56
2019-03-18T01:37:46.817Z,1003.57
2019-03-18T01:37:47.408Z,1003.55
2019-03-18T01:37:48.011Z,1003.54
2019-03-18T01:37:48.606Z,1003.53
2019-03-18T01:37:49.209Z,1003.53
2019-03-18T01:38:42.687Z,1003.50
2019-03-18T01:38:43.259Z,1003.61
2019-03-18T01:38:43.861Z,1003.61
2019-03-18T01:38:44.459Z,1003.62
2019-03-18T01:38:45.063Z,1003.55
2019-03-18T01:38:45.658Z,1003.55
2019-03-18T01:38:46.260Z,1003.59
2019-03-18T01:38:46.859Z,1003.61
2019-03-18T01:39:41.361Z,1003.52
2019-03-18T01:39:41.935Z,1003.59
2019-03-18T01:39:42.539Z,1003.59
2019-03-18T01:39:43.140Z,1003.59
2019-03-18T01:39:43.736Z,1003.62
2019-03-18T01:39:44.334Z,1003.64
2019-03-18T01:39:44.934Z,1003.65
2019-03-18T01:39:45.534Z,1003.67
2019-03-18T01:40:39.014Z,1003.60
2019-03-18T01:40:39.587Z,1003.65
2019-03-18T01:40:40.191Z,1003.65
2019-03-18T01:40:40.785Z,1003.67
2019-03-18T01:40:41.387Z,1003.65
2019-03-18T01:40:41.986Z,1003.62
2019-03-18T01:40:42.590Z,1003.62
2019-03-18T01:40:43.186Z,1003.59
2019-03-18T01:41:37.689Z,1003.53
2019-03-18T01:41:38.263Z,1003.58
2019-03-18T01:41:38.864Z,1003.61
2019-03-18T01:41:39.462Z,1003.58
2019-03-18T01:41:40.064Z,1003.60
2019-03-18T01:41:40.663Z,1003.65
2019-03-18T01:41:41.262Z,1003.61
2019-03-18T01:41:41.862Z,1003.67
2019-03-18T01:42:35.341Z,1003.61
2019-03-18T01:42:35.915Z,1003.65
2019-03-18T01:42:36.515Z,1003.70
2019-03-18T01:42:37.118Z,1003.70
2019-03-18T01:42:37.712Z,1003.69
2019-03-18T01:42:38.314Z,1003.71
2019-03-18T01:42:38.945Z,1003.68
2019-03-18T01:42:39.516Z,1003.71
2019-03-18T01:43:34.020Z,1003.65
2019-03-18T01:43:34.590Z,1003.67
2019-03-18T01:43:35.190Z,1003.70
2019-03-18T01:43:35.790Z,1003.64
2019-03-18T01:43:36.390Z,1003.67
2019-03-18T01:43:36.989Z,1003.66
2019-03-18T01:43:37.593Z,1003.71
2019-03-18T01:43:38.189Z,1003.73
2019-03-18T01:44:32.692Z,1003.62
2019-03-18T01:44:33.266Z,1003.65
2019-03-18T01:44:33.867Z,1003.68
2019-03-18T01:44:34.465Z,1003.66
2019-03-18T01:44:35.068Z,1003.72
2019-03-18T01:44:35.686Z,1003.70
2019-03-18T01:44:36.263Z,1003.71
2019-03-18T01:44:36.867Z,1003.74
2019-03-18T01:45:40.084Z,1003.69
2019-03-18T01:45:40.231Z,1003.71
2019-03-18T01:45:40.587Z,1003.76
2019-03-18T01:45:40.658Z,1003.72
2019-03-18T01:45:40.678Z,1003.73
2019-03-18T01:45:40.681Z,1003.79
2019-03-18T01:45:40.698Z,1003.74
2019-03-18T01:45:40.787Z,1003.75
2019-03-18T01:46:27.996Z,1003.75
2019-03-18T01:46:28.568Z,1003.73
2019-03-18T01:46:29.175Z,1003.73
2019-03-18T01:46:29.769Z,1003.73
2019-03-18T01:46:30.375Z,1003.69
2019-03-18T01:46:30.968Z,1003.72
2019-03-18T01:46:31.571Z,1003.77
2019-03-18T01:46:32.169Z,1003.73
2019-03-18T01:47:25.647Z,1003.69
2019-03-18T01:47:26.221Z,1003.77
2019-03-18T01:47:26.822Z,1003.77
2019-03-18T01:47:27.420Z,1003.80
2019-03-18T01:47:28.025Z,1003.83
2019-03-18T01:47:28.620Z,1003.80
2019-03-18T01:47:29.219Z,1003.82
2019-03-18T01:47:29.820Z,1003.81
2019-03-18T01:48:24.325Z,1003.71
2019-03-18T01:48:24.895Z,1003.82
2019-03-18T01:48:25.495Z,1003.84
2019-03-18T01:48:26.100Z,1003.84
2019-03-18T01:48:26.696Z,1003.83
2019-03-18T01:48:27.295Z,1003.84
2019-03-18T01:48:27.895Z,1003.83
2019-03-18T01:48:28.496Z,1003.82
2019-03-18T01:49:21.974Z,1003.71
2019-03-18T01:49:22.548Z,1003.78
2019-03-18T01:49:23.149Z,1003.78
2019-03-18T01:49:23.752Z,1003.79
2019-03-18T01:49:24.354Z,1003.78
2019-03-18T01:49:24.949Z,1003.77
2019-03-18T01:49:25.550Z,1003.77
2019-03-18T01:49:26.148Z,1003.75
2019-03-18T01:50:20.650Z,1003.66
2019-03-18T01:50:21.227Z,1003.75
2019-03-18T01:50:21.825Z,1003.74
2019-03-18T01:50:22.423Z,1003.78
2019-03-18T01:50:23.024Z,1003.80
2019-03-18T01:50:23.628Z,1003.78
2019-03-18T01:50:24.223Z,1003.84
2019-03-18T01:50:24.826Z,1003.82
2019-03-18T01:51:18.302Z,1003.71
2019-03-18T01:51:18.876Z,1003.77
2019-03-18T01:51:19.481Z,1003.76
2019-03-18T01:51:20.080Z,1003.78
2019-03-18T01:51:20.677Z,1003.77
2019-03-18T01:51:21.275Z,1003.83
2019-03-18T01:51:21.877Z,1003.81
2019-03-18T01:51:22.476Z,1003.78
2019-03-18T01:52:15.954Z,1003.68
2019-03-18T01:52:16.529Z,1003.74
2019-03-18T01:52:17.144Z,1003.76
2019-03-18T01:52:17.728Z,1003.76
2019-03-18T01:52:18.327Z,1003.79
2019-03-18T01:52:18.927Z,1003.79
2019-03-18T01:52:19.527Z,1003.81
2019-03-18T01:52:20.128Z,1003.84
2019-03-18T01:53:14.629Z,1003.62
2019-03-18T01:53:15.203Z,1003.73
2019-03-18T01:53:15.803Z,1003.78
2019-03-18T01:53:16.403Z,1003.75
2019-03-18T01:53:17.004Z,1003.77
2019-03-18T01:53:17.602Z,1003.80
2019-03-18T01:53:18.202Z,1003.76
2019-03-18T01:53:18.804Z,1003.80
2019-03-18T01:54:13.305Z,1003.64
2019-03-18T01:54:13.878Z,1003.71
2019-03-18T01:54:14.478Z,1003.74
2019-03-18T01:54:15.078Z,1003.78
2019-03-18T01:54:15.677Z,1003.76
2019-03-18T01:54:16.278Z,1003.79
2019-03-18T01:54:16.878Z,1003.81
2019-03-18T01:54:17.479Z,1003.83
2019-03-18T01:55:11.980Z,1003.70
2019-03-18T01:55:12.556Z,1003.76
2019-03-18T01:55:13.155Z,1003.77
2019-03-18T01:55:13.754Z,1003.77
2019-03-18T01:55:14.359Z,1003.76
2019-03-18T01:55:14.954Z,1003.76
2019-03-18T01:55:15.553Z,1003.73
2019-03-18T01:55:16.154Z,1003.73
2019-03-18T01:56:10.657Z,1003.64
2019-03-18T01:56:11.231Z,1003.73
2019-03-18T01:56:11.829Z,1003.71
2019-03-18T01:56:12.430Z,1003.75
2019-03-18T01:56:13.029Z,1003.75
2019-03-18T01:56:13.629Z,1003.75
2019-03-18T01:56:14.227Z,1003.77
2019-03-18T01:56:14.831Z,1003.75
2019-03-18T01:57:09.332Z,1003.72